Time;durP1;ratioP1;P1;durP2;ratioP2;P2;SDS_P1;SDS_P2;PMS_P1;PMS_P2;Temp;Humidity;BMP_temperature;BMP_pressure;BME280_temperature;BME280_humidity;BME280_pressure;Samples;Min_cycle;Max_cycle;Signal;HPM_P1;HPM_P2
2022/09/02 00:00:52;;;;;;;2.58;1.30;;;;;;;;;;5013581;28;89279;-72
2022/09/02 00:03:19;;;;;;;6.65;1.40;;;;;;;;;;5013871;28;89519;-73
2022/09/02 00:05:46;;;;;;;2.55;1.15;;;;;;;;;;5012874;28;90004;-72
2022/09/02 00:08:13;;;;;;;2.90;1.30;;;;;;;;;;5012654;28;88986;-72
2022/09/02 00:10:41;;;;;;;3.33;1.17;;;;;;;;;;5016067;28;89777;-72
2022/09/02 00:13:09;;;;;;;1.95;1.20;;;;;;;;;;5012968;28;88946;-72
2022/09/02 00:15:36;;;;;;;3.03;1.13;;;;;;;;;;5013241;28;89829;-73
2022/09/02 00:18:03;;;;;;;6.95;1.25;;;;;;;;;;5012269;28;90004;-72
2022/09/02 00:20:30;;;;;;;2.63;1.20;;;;;;;;;;5012787;28;89273;-72
2022/09/02 00:22:56;;;;;;;2.97;1.17;;;;;;;;;;5013117;28;90203;-72
2022/09/02 00:25:22;;;;;;;4.18;1.38;;;;;;;;;;5013286;28;89789;-72
2022/09/02 00:27:49;;;;;;;2.40;1.20;;;;;;;;;;5012027;28;89084;-72
2022/09/02 00:30:15;;;;;;;8.13;1.42;;;;;;;;;;5012147;28;90327;-72
2022/09/02 00:32:41;;;;;;;2.25;1.13;;;;;;;;;;5016790;28;90112;-72
2022/09/02 00:35:08;;;;;;;1.98;1.35;;;;;;;;;;5007688;28;89426;-72
2022/09/02 00:37:35;;;;;;;2.97;1.30;;;;;;;;;;5012306;28;90282;-72
2022/09/02 00:40:02;;;;;;;1.77;1.30;;;;;;;;;;5012482;28;89161;-72
2022/09/02 00:42:28;;;;;;;3.17;1.50;;;;;;;;;;5013053;28;90613;-72
2022/09/02 00:44:55;;;;;;;4.03;1.40;;;;;;;;;;5012683;28;90281;-72
2022/09/02 00:47:21;;;;;;;3.40;1.60;;;;;;;;;;5012302;28;88410;-72
2022/09/02 00:49:50;;;;;;;2.90;1.73;;;;;;;;;;5012024;28;90248;-72
2022/09/02 00:52:19;;;;;;;2.15;1.40;;;;;;;;;;5011657;28;90277;-72
2022/09/02 00:54:48;;;;;;;1.67;1.30;;;;;;;;;;5014413;28;89269;-72
2022/09/02 00:57:18;;;;;;;3.33;1.55;;;;;;;;;;5013351;28;89245;-72
2022/09/02 00:59:52;;;;;;;3.20;1.58;;;;;;;;;;5011949;28;89423;-72
2022/09/02 01:02:22;;;;;;;3.72;1.40;;;;;;;;;;5012626;28;89926;-72
2022/09/02 01:04:50;;;;;;;4.45;1.80;;;;;;;;;;5011261;28;90800;-72
2022/09/02 01:07:16;;;;;;;7.63;1.60;;;;;;;;;;5011332;28;89134;-72
2022/09/02 01:09:42;;;;;;;3.67;1.58;;;;;;;;;;5011580;28;89618;-72
2022/09/02 01:12:11;;;;;;;4.15;1.40;;;;;;;;;;5012086;28;88788;-72
2022/09/02 01:14:37;;;;;;;3.15;1.55;;;;;;;;;;5014221;28;89126;-72
2022/09/02 01:17:05;;;;;;;3.45;1.58;;;;;;;;;;5012191;28;89889;-72
2022/09/02 01:19:34;;;;;;;3.92;1.40;;;;;;;;;;5011253;28;89099;-72
2022/09/02 01:22:00;;;;;;;2.92;1.83;;;;;;;;;;5012862;28;89568;-73
2022/09/02 01:24:28;;;;;;;3.35;1.40;;;;;;;;;;5012152;28;89003;-73
2022/09/02 01:26:56;;;;;;;3.80;1.55;;;;;;;;;;5011865;28;88929;-72
2022/09/02 01:29:23;;;;;;;4.82;1.40;;;;;;;;;;5010991;28;89706;-74
2022/09/02 01:31:50;;;;;;;1.60;1.30;;;;;;;;;;5012200;28;90775;-73
2022/09/02 01:34:16;;;;;;;3.28;1.40;;;;;;;;;;5011649;28;88865;-73
2022/09/02 01:36:43;;;;;;;2.53;1.40;;;;;;;;;;5014104;28;90150;-73
2022/09/02 01:39:11;;;;;;;2.80;1.30;;;;;;;;;;5011038;28;89058;-74
2022/09/02 01:41:37;;;;;;;8.23;1.50;;;;;;;;;;5012209;28;89985;-73
2022/09/02 01:44:04;;;;;;;2.90;1.30;;;;;;;;;;5011968;28;90045;-73
2022/09/02 01:46:31;;;;;;;8.55;1.67;;;;;;;;;;5009409;28;89145;-74
2022/09/02 01:48:57;;;;;;;6.35;1.50;;;;;;;;;;5010836;28;89144;-73
2022/09/02 01:51:24;;;;;;;2.53;1.40;;;;;;;;;;5012048;28;90270;-73
2022/09/02 01:53:50;;;;;;;2.08;1.25;;;;;;;;;;5010939;28;89873;-73
2022/09/02 01:56:16;;;;;;;4.65;1.40;;;;;;;;;;5011045;28;90334;-72
2022/09/02 01:58:42;;;;;;;5.60;1.42;;;;;;;;;;5015215;28;90399;-72
2022/09/02 02:01:10;;;;;;;11.07;1.42;;;;;;;;;;5011175;28;89754;-72
2022/09/02 02:03:37;;;;;;;4.38;1.60;;;;;;;;;;5011525;28;89011;-72
2022/09/02 02:06:07;;;;;;;2.67;1.40;;;;;;;;;;5010773;28;88923;-72
2022/09/02 02:08:34;;;;;;;5.47;1.50;;;;;;;;;;5011504;28;89727;-72
2022/09/02 02:11:00;;;;;;;4.93;1.50;;;;;;;;;;5011057;28;89079;-72
2022/09/02 02:13:26;;;;;;;2.90;1.70;;;;;;;;;;5011453;28;89076;-72
2022/09/02 02:15:53;;;;;;;3.15;1.50;;;;;;;;;;5010583;28;89532;-72
2022/09/02 02:18:19;;;;;;;2.72;1.38;;;;;;;;;;5010334;28;90783;-72
2022/09/02 02:20:46;;;;;;;3.60;1.83;;;;;;;;;;5014225;28;89005;-72
2022/09/02 02:23:12;;;;;;;3.90;1.60;;;;;;;;;;5011668;28;90438;-72
2022/09/02 02:25:38;;;;;;;5.80;1.92;;;;;;;;;;5010498;28;89110;-72
2022/09/02 02:28:05;;;;;;;4.68;1.60;;;;;;;;;;5011403;28;89744;-72
2022/09/02 02:30:31;;;;;;;4.22;1.77;;;;;;;;;;5011305;28;89991;-72
2022/09/02 02:32:58;;;;;;;7.20;1.38;;;;;;;;;;5010397;28;89255;-72
2022/09/02 02:35:24;;;;;;;4.53;1.50;;;;;;;;;;5010890;28;89797;-72
2022/09/02 02:37:51;;;;;;;8.07;1.60;;;;;;;;;;5011227;28;89880;-72
2022/09/02 02:40:19;;;;;;;11.15;1.80;;;;;;;;;;5011216;28;89072;-72
2022/09/02 02:42:46;;;;;;;2.38;1.48;;;;;;;;;;5012573;28;90529;-73
2022/09/02 02:45:12;;;;;;;3.35;1.30;;;;;;;;;;5009574;28;89132;-73
2022/09/02 02:47:41;;;;;;;4.95;1.35;;;;;;;;;;5011300;28;89011;-73
2022/09/02 02:50:09;;;;;;;8.88;1.80;;;;;;;;;;5009534;28;89958;-73
2022/09/02 02:52:37;;;;;;;4.15;1.33;;;;;;;;;;5011110;28;88832;-73
2022/09/02 02:55:05;;;;;;;5.13;1.58;;;;;;;;;;5010024;28;89984;-73
2022/09/02 02:57:32;;;;;;;5.05;1.50;;;;;;;;;;5011138;28;90046;-73
2022/09/02 03:00:10;;;;;;;9.13;1.60;;;;;;;;;;5011404;28;89135;-74
2022/09/02 03:02:37;;;;;;;2.35;1.30;;;;;;;;;;5014354;28;89130;-73
2022/09/02 03:05:04;;;;;;;2.42;1.50;;;;;;;;;;5016580;28;90182;-73
2022/09/02 03:07:31;;;;;;;3.25;1.50;;;;;;;;;;5014014;28;90210;-72
2022/09/02 03:09:57;;;;;;;2.03;1.45;;;;;;;;;;5013796;28;90159;-73
2022/09/02 03:12:24;;;;;;;4.15;1.58;;;;;;;;;;5014685;28;88693;-73
2022/09/02 03:14:51;;;;;;;3.58;1.58;;;;;;;;;;5013054;28;92396;-73
2022/09/02 03:17:17;;;;;;;6.00;1.67;;;;;;;;;;5014221;28;90115;-73
2022/09/02 03:19:44;;;;;;;3.42;1.70;;;;;;;;;;5013967;28;88843;-73
2022/09/02 03:22:11;;;;;;;4.68;1.80;;;;;;;;;;5014330;28;89980;-73
2022/09/02 03:24:37;;;;;;;3.90;1.55;;;;;;;;;;5017553;28;89210;-72
2022/09/02 03:27:04;;;;;;;3.40;1.90;;;;;;;;;;5011659;28;89477;-72
2022/09/02 03:29:30;;;;;;;8.55;1.80;;;;;;;;;;5013427;28;89850;-73
2022/09/02 03:31:56;;;;;;;8.30;1.77;;;;;;;;;;5012105;28;89330;-73
2022/09/02 03:34:23;;;;;;;4.10;1.50;;;;;;;;;;5014203;28;90700;-72
2022/09/02 03:36:49;;;;;;;3.45;1.60;;;;;;;;;;5012110;28;89973;-73
2022/09/02 03:39:15;;;;;;;4.13;1.70;;;;;;;;;;5013967;28;89043;-73
2022/09/02 03:41:42;;;;;;;7.25;1.75;;;;;;;;;;5014390;28;89936;-72
2022/09/02 03:44:09;;;;;;;5.63;1.90;;;;;;;;;;5013276;28;89856;-73
2022/09/02 03:46:35;;;;;;;4.93;1.65;;;;;;;;;;5016360;28;89546;-73
2022/09/02 03:49:02;;;;;;;8.35;2.13;;;;;;;;;;5013594;28;90165;-72
2022/09/02 03:51:30;;;;;;;9.15;1.63;;;;;;;;;;5013781;28;88701;-73
2022/09/02 03:53:56;;;;;;;5.32;1.80;;;;;;;;;;5011052;28;89536;-73
2022/09/02 03:56:24;;;;;;;4.22;1.75;;;;;;;;;;5004989;28;90916;-73
2022/09/02 03:58:50;;;;;;;4.65;1.80;;;;;;;;;;5009448;28;89090;-73
2022/09/02 04:01:18;;;;;;;4.03;1.65;;;;;;;;;;5002949;28;89916;-73
2022/09/02 04:03:45;;;;;;;2.75;1.80;;;;;;;;;;5013129;28;90153;-73
2022/09/02 04:06:13;;;;;;;4.53;1.55;;;;;;;;;;5010932;28;89040;-73
2022/09/02 04:08:40;;;;;;;2.83;1.85;;;;;;;;;;5014980;28;88699;-72
2022/09/02 04:11:08;;;;;;;5.45;1.98;;;;;;;;;;5010664;28;88995;-73
2022/09/02 04:13:34;;;;;;;5.13;1.70;;;;;;;;;;5005198;28;89899;-73
2022/09/02 04:16:08;;;;;;;5.18;1.75;;;;;;;;;;5008458;28;90136;-72
2022/09/02 04:18:36;;;;;;;2.70;1.48;;;;;;;;;;5008851;28;90769;-73
2022/09/02 04:21:02;;;;;;;3.53;1.77;;;;;;;;;;5009507;28;89832;-72
2022/09/02 04:23:29;;;;;;;7.65;1.80;;;;;;;;;;5006462;28;90110;-73
2022/09/02 04:25:56;;;;;;;4.88;1.80;;;;;;;;;;5006072;28;89184;-72
2022/09/02 04:28:22;;;;;;;5.72;1.75;;;;;;;;;;5004081;28;89559;-73
2022/09/02 04:30:49;;;;;;;4.85;2.10;;;;;;;;;;5009346;28;90100;-73
2022/09/02 04:33:16;;;;;;;5.75;1.83;;;;;;;;;;5003763;28;89898;-72
2022/09/02 04:35:43;;;;;;;4.85;1.90;;;;;;;;;;5009073;28;90094;-72
2022/09/02 04:38:10;;;;;;;6.28;2.00;;;;;;;;;;5013264;28;89062;-73
2022/09/02 19:22:06;;;;;;;5.03;2.50;;;;;;;;;;4998991;28;89023;-70
2022/09/02 19:24:34;;;;;;;6.15;2.63;;;;;;;;;;5001650;28;87696;-69
2022/09/02 19:27:03;;;;;;;14.07;2.90;;;;;;;;;;5004202;28;88705;-70
2022/09/02 19:29:30;;;;;;;7.35;2.80;;;;;;;;;;5001078;28;88353;-70
2022/09/02 19:31:57;;;;;;;6.18;2.70;;;;;;;;;;5001314;28;88978;-70
2022/09/02 19:34:29;;;;;;;15.80;2.67;;;;;;;;;;5003306;28;88408;-70
2022/09/02 19:36:55;;;;;;;12.38;2.67;;;;;;;;;;5004202;28;88272;-70
2022/09/02 19:39:22;;;;;;;7.03;2.50;;;;;;;;;;5000036;28;89107;-70
2022/09/02 19:41:48;;;;;;;15.75;2.63;;;;;;;;;;5003433;28;88386;-70
2022/09/02 19:44:16;;;;;;;8.10;2.40;;;;;;;;;;5001882;28;87958;-70
2022/09/02 19:46:42;;;;;;;4.95;2.47;;;;;;;;;;5004684;28;88317;-70
2022/09/02 19:49:29;;;;;;;7.00;2.70;;;;;;;;;;5004216;28;91079;-71
2022/09/02 19:51:56;;;;;;;12.38;2.47;;;;;;;;;;5003524;28;89259;-69
2022/09/02 19:54:22;;;;;;;7.28;2.60;;;;;;;;;;4993657;28;88409;-71
2022/09/02 19:56:48;;;;;;;9.57;2.65;;;;;;;;;;5003757;28;87951;-71
2022/09/02 19:59:15;;;;;;;8.15;2.63;;;;;;;;;;5003588;28;88917;-71
2022/09/02 20:01:41;;;;;;;5.65;2.58;;;;;;;;;;5002965;28;88032;-69
2022/09/02 20:04:07;;;;;;;4.50;2.70;;;;;;;;;;5006711;28;89715;-70
2022/09/02 20:06:34;;;;;;;6.68;2.60;;;;;;;;;;5003643;28;88279;-70
2022/09/02 20:09:01;;;;;;;14.27;3.17;;;;;;;;;;5000833;28;87520;-70
2022/09/02 20:11:27;;;;;;;6.90;2.88;;;;;;;;;;5001645;28;89287;-70
2022/09/02 20:13:55;;;;;;;8.02;3.13;;;;;;;;;;5003536;28;88482;-69
2022/09/02 20:16:23;;;;;;;7.25;2.75;;;;;;;;;;5002435;28;88854;-69
2022/09/02 20:18:51;;;;;;;5.20;2.78;;;;;;;;;;5003168;28;89042;-70
2022/09/02 20:21:22;;;;;;;7.22;2.65;;;;;;;;;;5001623;28;88303;-70
2022/09/02 20:23:49;;;;;;;4.93;2.70;;;;;;;;;;5004278;28;88680;-70
2022/09/02 20:26:26;;;;;;;8.10;2.80;;;;;;;;;;5006006;28;88848;-70
2022/09/02 20:28:58;;;;;;;8.25;3.08;;;;;;;;;;5002280;28;88806;-70
2022/09/02 20:31:27;;;;;;;9.57;2.80;;;;;;;;;;5000670;28;89299;-71
2022/09/02 20:34:08;;;;;;;6.72;2.95;;;;;;;;;;4990434;28;87626;-71
2022/09/02 20:36:43;;;;;;;9.95;2.90;;;;;;;;;;4990103;28;88324;-71
2022/09/02 20:39:18;;;;;;;8.50;2.92;;;;;;;;;;4990016;28;89116;-71
2022/09/02 20:41:54;;;;;;;9.35;2.83;;;;;;;;;;4989703;28;88940;-71
2022/09/02 20:44:33;;;;;;;7.55;2.90;;;;;;;;;;4988661;28;89166;-70
2022/09/02 20:47:18;;;;;;;10.45;2.72;;;;;;;;;;4990700;28;89071;-71
2022/09/02 20:49:58;;;;;;;5.63;2.75;;;;;;;;;;4992329;28;88859;-70
2022/09/02 20:52:30;;;;;;;6.82;3.00;;;;;;;;;;4987114;28;89286;-70
2022/09/02 20:55:01;;;;;;;6.83;2.90;;;;;;;;;;4975890;28;88693;-70
2022/09/02 20:57:27;;;;;;;7.95;3.25;;;;;;;;;;4989461;28;88717;-70
2022/09/02 20:59:57;;;;;;;8.57;3.83;;;;;;;;;;4988113;28;89377;-70
2022/09/02 21:02:26;;;;;;;7.90;2.95;;;;;;;;;;4986629;28;87834;-70
2022/09/02 21:04:59;;;;;;;4.18;2.60;;;;;;;;;;4988495;28;88551;-71
2022/09/02 21:07:31;;;;;;;9.35;2.42;;;;;;;;;;4988764;28;89973;-70
2022/09/02 21:10:05;;;;;;;7.88;2.80;;;;;;;;;;4989790;28;88077;-71
2022/09/02 21:12:34;;;;;;;7.32;2.60;;;;;;;;;;4993031;28;88674;-73
2022/09/02 21:15:05;;;;;;;6.00;2.90;;;;;;;;;;4988236;28;87186;-70
2022/09/02 21:17:32;;;;;;;5.13;2.55;;;;;;;;;;4990115;28;88895;-70
2022/09/02 21:20:37;;;;;;;5.72;2.42;;;;;;;;;;4989608;28;89080;-70
2022/09/02 21:23:08;;;;;;;6.60;2.60;;;;;;;;;;4928402;28;88535;-72
2022/09/02 21:25:47;;;;;;;5.93;2.53;;;;;;;;;;4925934;28;89050;-70
2022/09/02 21:28:18;;;;;;;6.15;2.42;;;;;;;;;;4928708;28;89282;-70
2022/09/02 21:30:47;;;;;;;5.90;2.67;;;;;;;;;;4922690;28;88791;-70
2022/09/02 21:33:15;;;;;;;6.03;2.50;;;;;;;;;;4928648;28;88629;-70
2022/09/02 21:35:41;;;;;;;3.95;2.10;;;;;;;;;;4922215;28;89959;-70
2022/09/02 21:38:09;;;;;;;8.27;3.00;;;;;;;;;;4919441;28;88799;-70
2022/09/02 21:40:49;;;;;;;5.88;2.45;;;;;;;;;;4928934;28;88940;-70
2022/09/02 21:43:29;;;;;;;11.10;2.83;;;;;;;;;;4911906;28;88272;-70
2022/09/02 21:45:55;;;;;;;9.52;2.90;;;;;;;;;;4920693;28;88295;-70
2022/09/02 21:48:35;;;;;;;4.93;2.60;;;;;;;;;;4927842;28;89730;-70
2022/09/02 21:51:14;;;;;;;8.63;2.60;;;;;;;;;;4922603;28;88243;-70
2022/09/02 21:53:53;;;;;;;8.80;2.75;;;;;;;;;;4946173;28;88803;-70
2022/09/02 21:56:19;;;;;;;5.50;2.20;;;;;;;;;;4988232;28;89339;-70
2022/09/02 21:59:09;;;;;;;4.15;2.20;;;;;;;;;;4985322;28;88563;-70
2022/09/02 22:01:43;;;;;;;3.53;2.20;;;;;;;;;;4966811;28;89671;-70
2022/09/02 22:04:11;;;;;;;3.42;2.03;;;;;;;;;;4989620;28;88713;-69
2022/09/02 22:06:41;;;;;;;6.35;2.40;;;;;;;;;;4989767;28;88681;-69
2022/09/02 22:09:07;;;;;;;10.73;2.35;;;;;;;;;;4989693;28;89062;-69
2022/09/02 22:11:37;;;;;;;3.67;2.20;;;;;;;;;;4987818;28;88747;-70
2022/09/02 22:14:13;;;;;;;4.90;2.00;;;;;;;;;;4989642;28;88745;-70
2022/09/02 22:16:39;;;;;;;6.47;2.40;;;;;;;;;;4989003;28;89449;-70
2022/09/02 22:19:07;;;;;;;5.28;2.15;;;;;;;;;;4991804;28;88392;-70
2022/09/02 22:21:59;;;;;;;5.55;2.10;;;;;;;;;;4987869;28;88980;-69
2022/09/02 22:24:29;;;;;;;5.53;2.30;;;;;;;;;;4986785;28;88504;-70
2022/09/02 22:27:01;;;;;;;6.47;1.90;;;;;;;;;;4986525;28;88959;-70
2022/09/02 22:29:35;;;;;;;5.13;2.43;;;;;;;;;;4988048;28;88795;-70
2022/09/02 22:32:06;;;;;;;5.28;2.33;;;;;;;;;;4988741;28;89782;-70
2022/09/02 22:34:37;;;;;;;3.33;2.00;;;;;;;;;;4989569;28;88587;-69
2022/09/02 22:37:06;;;;;;;3.97;2.10;;;;;;;;;;4989437;28;89166;-70
2022/09/02 22:39:46;;;;;;;13.93;2.17;;;;;;;;;;4987087;28;88769;-69
2022/09/02 22:42:14;;;;;;;7.97;2.20;;;;;;;;;;4992174;28;88910;-70
2022/09/02 22:53:03;;;;;;;5.05;2.20;;;;;;;;;;5016111;28;88638;-70
2022/09/02 22:55:51;;;;;;;4.90;2.15;;;;;;;;;;4989437;28;88834;-70
2022/09/02 22:58:20;;;;;;;8.45;2.28;;;;;;;;;;4988926;28;89311;-70
2022/09/02 23:00:57;;;;;;;4.57;1.95;;;;;;;;;;4985674;28;88325;-70
2022/09/02 23:03:28;;;;;;;7.07;2.03;;;;;;;;;;4989033;28;88483;-70
2022/09/02 23:06:06;;;;;;;3.83;2.10;;;;;;;;;;4972213;28;89049;-70
2022/09/02 23:08:35;;;;;;;3.95;2.00;;;;;;;;;;4986822;28;88712;-70
2022/09/02 23:11:10;;;;;;;6.63;2.28;;;;;;;;;;4986771;28;89078;-70
2022/09/02 23:13:36;;;;;;;7.60;2.35;;;;;;;;;;4988010;28;88418;-70
2022/09/02 23:16:22;;;;;;;5.53;2.03;;;;;;;;;;4986026;28;88910;-70
2022/09/02 23:18:59;;;;;;;4.13;2.05;;;;;;;;;;4988354;28;89063;-70
2022/09/02 23:21:35;;;;;;;4.72;2.10;;;;;;;;;;4987382;28;88175;-71
2022/09/02 23:24:02;;;;;;;6.18;1.92;;;;;;;;;;4987901;28;88598;-70
2022/09/02 23:26:48;;;;;;;5.78;2.50;;;;;;;;;;4988956;28;88787;-70
2022/09/02 23:29:25;;;;;;;6.75;2.40;;;;;;;;;;4991180;28;88382;-70
2022/09/02 23:32:09;;;;;;;4.13;2.25;;;;;;;;;;4985322;28;89574;-70
2022/09/02 23:34:42;;;;;;;10.02;2.45;;;;;;;;;;4987629;28;88373;-70
2022/09/02 23:37:29;;;;;;;4.60;2.20;;;;;;;;;;4987434;28;90115;-70
2022/09/02 23:39:59;;;;;;;3.88;1.98;;;;;;;;;;4968423;28;89419;-70
2022/09/02 23:42:26;;;;;;;3.97;2.00;;;;;;;;;;4984616;28;89068;-70
2022/09/02 23:44:58;;;;;;;3.17;1.83;;;;;;;;;;4986190;28;90402;-70
2022/09/02 23:47:36;;;;;;;8.20;2.30;;;;;;;;;;4983237;28;89234;-70
2022/09/02 23:50:11;;;;;;;6.20;1.90;;;;;;;;;;4983834;28;89504;-70
2022/09/02 23:52:41;;;;;;;6.50;2.08;;;;;;;;;;4986288;28;89069;-70
2022/09/02 23:55:19;;;;;;;3.80;2.10;;;;;;;;;;4987299;28;89856;-70
2022/09/02 23:57:46;;;;;;;10.93;2.33;;;;;;;;;;4986298;28;89829;-70
